map of YVM home
YVM - Airport
Location
City:  Qikiqtarjuaq, Qikiqtaaluk, Nunavut, Canada
Near (Alt.):Broughton Island
ICAO:CYVM
IATA:YVM

Details
Type:Airport (Airfield)
Use:Public/Civil
Latitude:6732'48"N (67.546667)
Longitude:6401'54"W (-64.031666)
Elevation:18 ft (5 m)
Variation:31.29W (WMM2015v2 magnetic declination)
0.54 annual change
Runways:1
Longest:3803 × 100 ft (1159 × 30.5 m)

Time
Time Zone:UTC-5 (DST-4)
Local Time:

Weather
METAR:CYVM 041400Z 07010KT 15SM IC FEW014 FEW025 FEW100 SCT220 M21/M23 A2998 RMK SC1SC1AC1CC2 SC TR SLP153
TAF:CYVM 041238Z 0413/0501 VRB03KT P6SM IC BKN040
TEMPO 0413/0422 5SM -SN OVC020
FM042200 07008KT P6SM SCT030
TEMPO 0422/0501 5SM IC
RMK NXT FCST BY 041900Z

Related Locations
Nearby:
Farthest:YWKS: 12298 mi / 19791 km
Wilkins Runway (Casey), Upper Peterson Glacier, AQ

Find:

   beyond  
but within

Other Information
Maps:
NOTAMs:
Links:
Sources:

  
  • flag of Canada
  • flag of Nunavut
  

Airport Diagram

Airport diagram for YVM

Airport diagram PDF

Sectional Chart

Flight Planning
at skyvector.com

Satellite Image

Google Maps Satellite view

 

Copyright © 2004-2019 Karl L. Swartz. All rights reserved.
The Great Circle Mapper name and logo are trademarks of the Great Circle Mapper.
All other trademarks mentioned herein belong to their respective owners.
Please see credits for attibutions and further copyright information.

  Follow gcmap on Facebook Follow gcmap on Twitter GCmap on LinkedIn

hCard Microformat

Geo Microformat